Time;durP1;ratioP1;P1;durP2;ratioP2;P2;SDS_P1;SDS_P2;PMS_P1;PMS_P2;Temp;Humidity;BMP_temperature;BMP_pressure;BME280_temperature;BME280_humidity;BME280_pressure;Samples;Min_cycle;Max_cycle;Signal;HPM_P1;HPM_P2
2022/07/19 00:02:13;;;;;;;5.27;2.93;;;;;;;24.44;48.58;101782.47;5093005;28;20043;-62
2022/07/19 00:04:38;;;;;;;5.45;3.00;;;;;;;24.43;48.89;101783.44;5092443;28;20535;-62
2022/07/19 00:07:04;;;;;;;6.25;2.80;;;;;;;24.42;48.76;101774.63;5092172;28;20036;-62
2022/07/19 00:09:32;;;;;;;6.90;2.65;;;;;;;24.43;48.86;101772.78;5093249;28;20028;-62
2022/07/19 00:11:58;;;;;;;4.65;2.80;;;;;;;24.45;48.76;101776.16;5091736;28;20044;-62
2022/07/19 00:14:23;;;;;;;5.72;2.95;;;;;;;24.44;48.21;101766.50;5092990;28;20034;-62
2022/07/19 00:16:49;;;;;;;4.93;2.90;;;;;;;24.43;48.26;101762.13;5093292;28;20019;-62
2022/07/19 00:19:14;;;;;;;4.40;3.05;;;;;;;24.43;48.31;101764.81;5092159;28;20424;-62
2022/07/19 00:21:40;;;;;;;4.40;2.90;;;;;;;24.42;48.32;101763.97;5093155;28;20023;-62
2022/07/19 00:24:08;;;;;;;5.38;3.15;;;;;;;24.43;48.53;101765.66;5092746;28;20016;-62
2022/07/19 00:26:33;;;;;;;4.75;2.78;;;;;;;24.43;48.24;101762.13;5091355;28;20036;-62
2022/07/19 00:29:02;;;;;;;5.47;2.70;;;;;;;24.44;48.48;101748.66;5092394;28;20031;-62
2022/07/19 00:31:28;;;;;;;4.70;2.70;;;;;;;24.43;48.29;101765.66;5093150;28;20104;-62
2022/07/19 00:33:56;;;;;;;5.20;2.63;;;;;;;24.42;48.45;101761.31;5091029;28;20497;-62
2022/07/19 00:36:21;;;;;;;5.97;3.13;;;;;;;24.43;48.40;101759.47;5093061;28;20093;-62
2022/07/19 00:38:47;;;;;;;5.30;2.77;;;;;;;24.43;48.65;101746.16;5092082;28;20432;-61
2022/07/19 00:41:13;;;;;;;6.07;3.35;;;;;;;24.41;48.38;101748.97;5092500;28;20276;-62
2022/07/19 00:43:42;;;;;;;4.82;2.50;;;;;;;24.41;48.62;101754.28;5092745;28;20024;-61
2022/07/19 00:46:15;;;;;;;5.35;2.75;;;;;;;24.40;48.84;101759.75;5091827;28;20414;-61
2022/07/19 00:48:42;;;;;;;5.78;2.75;;;;;;;24.41;48.38;101742.81;5092587;28;20034;-61
2022/07/19 00:51:11;;;;;;;4.22;2.63;;;;;;;24.41;48.72;101740.97;5092279;28;20103;-61
2022/07/19 00:53:39;;;;;;;5.00;3.17;;;;;;;24.41;48.09;101740.97;5091930;28;20122;-61
2022/07/19 00:56:06;;;;;;;4.60;2.75;;;;;;;24.42;48.38;101745.31;5092332;28;20024;-61
2022/07/19 00:58:33;;;;;;;5.10;2.80;;;;;;;24.40;48.23;101743.78;5092530;28;20138;-61
2022/07/19 01:01:00;;;;;;;4.95;2.58;;;;;;;24.40;48.35;101747.28;5091766;28;20020;-61
2022/07/19 01:03:26;;;;;;;5.18;2.97;;;;;;;24.39;48.08;101740.28;5092611;28;20020;-61
2022/07/19 01:05:52;;;;;;;5.43;3.20;;;;;;;24.39;47.71;101742.13;5092860;28;20016;-61
2022/07/19 01:08:17;;;;;;;5.47;2.95;;;;;;;24.39;47.56;101742.13;5091569;28;20032;-61
2022/07/19 01:10:43;;;;;;;5.50;2.80;;;;;;;24.39;47.81;101736.78;5096025;28;20032;-61
2022/07/19 01:13:09;;;;;;;5.57;2.70;;;;;;;24.38;47.77;101738.59;5095885;28;20044;-61
2022/07/19 01:15:35;;;;;;;5.22;3.00;;;;;;;24.38;47.54;101743.09;5095869;28;20365;-61
2022/07/19 01:18:00;;;;;;;5.57;3.10;;;;;;;24.37;47.33;101741.41;5096218;28;20020;-61
2022/07/19 01:20:32;;;;;;;4.83;2.83;;;;;;;24.35;47.42;101749.53;5096491;28;20406;-61
2022/07/19 01:23:01;;;;;;;5.00;2.80;;;;;;;24.35;47.65;101748.69;5095738;28;20303;-61
2022/07/19 01:25:35;;;;;;;4.25;2.50;;;;;;;24.35;47.35;101748.69;5096128;28;20434;-61
2022/07/19 01:28:04;;;;;;;4.47;2.75;;;;;;;24.36;47.68;101739.75;5095328;28;20020;-61
2022/07/19 01:30:29;;;;;;;6.65;3.03;;;;;;;24.35;47.55;101740.72;5096110;28;20467;-61
2022/07/19 01:32:56;;;;;;;4.38;2.80;;;;;;;24.35;47.36;101738.03;5095752;28;20024;-61
2022/07/19 01:35:22;;;;;;;4.93;3.20;;;;;;;24.32;47.74;101746.31;5095321;28;20105;-61
2022/07/19 01:37:47;;;;;;;5.05;2.95;;;;;;;24.32;47.85;101752.47;5095924;28;20090;-61
2022/07/19 01:40:17;;;;;;;5.28;2.95;;;;;;;24.32;47.60;101746.31;5096000;28;20100;-61
2022/07/19 01:42:43;;;;;;;4.93;2.60;;;;;;;24.30;47.84;101746.47;5095197;28;20020;-61
2022/07/19 01:45:13;;;;;;;4.80;2.60;;;;;;;24.29;47.88;101743.94;5095596;28;20032;-61
2022/07/19 01:47:40;;;;;;;4.63;2.92;;;;;;;24.26;48.25;101745.09;5095866;28;20038;-61
2022/07/19 01:50:08;;;;;;;5.00;2.65;;;;;;;24.23;47.84;101737.38;5094532;28;20502;-61
2022/07/19 01:52:36;;;;;;;5.50;2.70;;;;;;;24.23;48.06;101745.38;5095904;28;20024;-61
2022/07/19 01:55:03;;;;;;;4.75;3.00;;;;;;;24.22;48.24;101744.50;5095520;28;20463;-61
2022/07/19 01:57:28;;;;;;;5.28;2.63;;;;;;;24.22;48.27;101738.34;5094680;28;20024;-61
2022/07/19 01:59:54;;;;;;;5.63;2.47;;;;;;;24.22;48.21;101738.34;5095586;28;20107;-61
2022/07/19 02:02:19;;;;;;;4.68;3.00;;;;;;;24.22;47.97;101744.50;5095543;28;20038;-61
2022/07/19 02:04:44;;;;;;;4.60;2.67;;;;;;;24.24;48.15;101739.03;5094618;28;20020;-61
2022/07/19 02:07:10;;;;;;;5.17;2.83;;;;;;;24.24;47.78;101742.56;5095493;28;20283;-61
2022/07/19 02:09:35;;;;;;;4.63;2.95;;;;;;;24.26;47.70;101739.78;5095533;28;20806;-61
2022/07/19 02:12:00;;;;;;;5.10;2.60;;;;;;;24.26;47.69;101735.28;5094154;28;20097;-61
2022/07/19 02:14:28;;;;;;;5.65;2.88;;;;;;;24.28;47.68;101740.44;5095576;28;20261;-61
2022/07/19 02:16:54;;;;;;;4.43;2.85;;;;;;;24.29;47.58;101738.63;5095378;28;20157;-61
2022/07/19 02:19:20;;;;;;;4.65;2.60;;;;;;;24.30;47.47;101737.66;5094190;28;20528;-61
2022/07/19 02:21:45;;;;;;;4.50;2.75;;;;;;;24.27;48.00;101736.97;5094302;28;20030;-62
2022/07/19 02:24:10;;;;;;;4.80;2.97;;;;;;;24.28;48.02;101721.81;5095019;28;20095;-61
2022/07/19 02:26:36;;;;;;;5.00;2.83;;;;;;;24.27;47.67;101723.63;5094485;28;20387;-61
2022/07/19 02:29:01;;;;;;;5.07;2.87;;;;;;;24.26;48.03;101716.63;5094603;28;20323;-61
2022/07/19 02:31:27;;;;;;;5.78;3.35;;;;;;;24.28;48.10;101721.81;5094220;28;20268;-61
2022/07/19 02:33:52;;;;;;;4.90;2.70;;;;;;;24.26;48.04;101715.78;5094872;28;20016;-61
2022/07/19 02:36:30;;;;;;;6.93;2.80;;;;;;;24.25;47.96;101712.28;5094920;28;20020;-61
2022/07/19 02:38:55;;;;;;;6.05;2.90;;;;;;;24.29;47.56;101718.13;5093608;28;20032;-61
2022/07/19 02:41:21;;;;;;;5.10;3.03;;;;;;;24.28;47.63;101716.47;5095019;28;20035;-61
2022/07/19 02:43:46;;;;;;;7.43;3.45;;;;;;;24.26;47.91;101710.47;5094871;28;20039;-61
2022/07/19 02:46:11;;;;;;;4.80;2.73;;;;;;;24.27;48.08;101715.66;5093507;28;20472;-61
2022/07/19 02:48:37;;;;;;;6.07;3.33;;;;;;;24.25;47.98;101712.28;5094591;28;20289;-61
2022/07/19 02:51:02;;;;;;;8.75;3.42;;;;;;;24.25;47.97;101714.09;5094300;28;20304;-61
2022/07/19 02:53:28;;;;;;;5.80;3.30;;;;;;;24.24;47.90;101704.44;5093841;28;20020;-61
2022/07/19 02:55:53;;;;;;;5.97;3.40;;;;;;;24.25;47.60;101708.78;5094691;28;20116;-61
2022/07/19 02:58:19;;;;;;;5.07;3.15;;;;;;;24.21;47.82;101702.91;5094300;28;20063;-61
2022/07/19 03:00:44;;;;;;;5.63;3.30;;;;;;;24.23;47.49;101706.25;5093587;28;20055;-61
2022/07/19 03:05:53;;;;;;;6.60;3.70;;;;;;;24.23;47.97;101710.75;5094393;28;20035;-61
2022/07/19 03:08:18;;;;;;;5.87;3.47;;;;;;;24.21;47.85;101699.38;5093382;28;20035;-61
2022/07/19 03:10:44;;;;;;;5.43;3.38;;;;;;;24.22;47.54;101706.41;5094334;28;20275;-62
2022/07/19 03:13:09;;;;;;;6.75;3.33;;;;;;;24.19;47.73;101696.03;5093664;28;20083;-61
2022/07/19 03:15:35;;;;;;;5.72;3.17;;;;;;;24.19;48.02;101702.19;5093362;28;20024;-61
2022/07/19 03:18:01;;;;;;;7.50;3.50;;;;;;;24.18;48.03;101694.34;5093931;28;20020;-61
2022/07/19 03:20:26;;;;;;;5.30;3.58;;;;;;;24.18;47.93;101692.53;5094458;28;20077;-61
2022/07/19 03:22:51;;;;;;;6.45;3.60;;;;;;;24.18;47.89;101683.69;5093542;28;20024;-61
2022/07/19 03:25:17;;;;;;;5.60;3.35;;;;;;;24.18;47.59;101694.34;5093789;28;20019;-61
2022/07/19 03:27:42;;;;;;;6.38;3.22;;;;;;;24.16;47.89;101685.66;5093250;28;20016;-61
2022/07/19 03:30:10;;;;;;;6.75;3.78;;;;;;;24.15;47.69;101689.31;5093511;28;20036;-61
2022/07/19 03:32:36;;;;;;;6.70;3.47;;;;;;;24.13;48.03;101685.97;5093755;28;20024;-61
2022/07/19 03:35:04;;;;;;;6.03;3.17;;;;;;;24.12;47.79;101686.97;5092856;28;20024;-61
2022/07/19 03:37:30;;;;;;;4.80;2.97;;;;;;;24.12;47.66;101689.63;5093743;28;20366;-61
2022/07/19 03:39:55;;;;;;;6.20;3.33;;;;;;;24.14;47.98;101691.13;5093437;28;20065;-61
2022/07/19 03:42:20;;;;;;;5.27;3.10;;;;;;;24.13;47.59;101692.13;5092921;28;20269;-61
2022/07/19 03:44:45;;;;;;;6.00;3.40;;;;;;;24.12;47.87;101692.28;5093430;28;20303;-61
2022/07/19 03:47:11;;;;;;;6.20;3.67;;;;;;;24.11;47.91;101683.44;5093161;28;20276;-61
2022/07/19 03:49:36;;;;;;;5.67;3.30;;;;;;;24.12;47.59;101692.28;5092625;28;20043;-61
2022/07/19 03:52:04;;;;;;;5.50;3.47;;;;;;;24.11;47.94;101682.59;5093171;28;20036;-61
2022/07/19 03:54:29;;;;;;;5.60;3.40;;;;;;;24.10;47.59;101687.09;5093619;28;20778;-61
2022/07/19 03:56:55;;;;;;;4.87;3.10;;;;;;;24.08;47.68;101686.38;5092616;28;20055;-61
2022/07/19 03:59:22;;;;;;;6.45;3.60;;;;;;;24.07;47.69;101685.56;5093173;28;20740;-61
2022/07/19 04:01:48;;;;;;;5.72;3.38;;;;;;;24.06;47.64;101685.69;5093444;28;20024;-61
2022/07/19 04:04:13;;;;;;;5.35;3.40;;;;;;;24.06;47.79;101691.03;5092121;28;20418;-61
2022/07/19 04:06:38;;;;;;;5.03;3.80;;;;;;;24.05;48.02;101681.34;5093418;28;20032;-61
2022/07/19 04:09:04;;;;;;;4.97;3.13;;;;;;;24.06;47.91;101685.69;5092957;28;20071;-61
2022/07/19 04:11:29;;;;;;;6.45;3.47;;;;;;;24.03;47.88;101697.47;5092314;28;20280;-61
2022/07/19 04:13:55;;;;;;;5.50;3.50;;;;;;;24.03;47.71;101692.13;5092635;28;20452;-61
2022/07/19 04:16:20;;;;;;;6.05;3.50;;;;;;;24.04;47.67;101687.69;5093095;28;20024;-61
2022/07/19 04:18:45;;;;;;;6.03;3.50;;;;;;;24.01;47.77;101694.13;5092415;28;20024;-61
2022/07/19 04:21:10;;;;;;;6.50;3.40;;;;;;;24.02;48.00;101692.28;5092873;28;20020;-61
2022/07/19 04:23:36;;;;;;;5.13;3.50;;;;;;;24.01;47.84;101691.44;5093395;28;20264;-61
2022/07/19 04:26:01;;;;;;;5.90;3.45;;;;;;;24.01;48.17;101680.81;5091989;28;20296;-61
2022/07/19 04:28:26;;;;;;;6.07;3.60;;;;;;;24.00;48.08;101688.94;5092702;28;20111;-61
2022/07/19 04:30:51;;;;;;;6.67;3.67;;;;;;;24.00;48.16;101694.25;5092182;28;20268;-61
2022/07/19 04:33:18;;;;;;;5.80;3.50;;;;;;;24.00;47.99;101691.59;5092694;28;20269;-61
2022/07/19 04:35:44;;;;;;;5.50;3.75;;;;;;;24.00;48.00;101696.91;5093468;28;20044;-61
2022/07/19 04:38:09;;;;;;;6.05;3.88;;;;;;;23.99;48.05;101688.09;5091932;28;20601;-61
2022/07/19 04:40:36;;;;;;;5.28;3.60;;;;;;;24.00;47.91;101694.25;5092956;28;20510;-61
2022/07/19 04:43:01;;;;;;;5.82;3.42;;;;;;;24.01;48.22;101695.94;5092341;28;20078;-60
2022/07/19 04:45:44;;;;;;;4.72;3.40;;;;;;;24.00;48.03;101695.09;5091201;28;20028;-61
2022/07/19 04:48:15;;;;;;;5.03;3.60;;;;;;;24.00;48.26;101696.91;5092592;28;20020;-61
2022/07/19 04:50:41;;;;;;;6.82;3.60;;;;;;;24.00;48.06;101699.59;5092745;28;20031;-61
2022/07/19 04:53:07;;;;;;;5.35;3.60;;;;;;;23.99;48.46;101685.44;5091679;28;20106;-61
2022/07/19 04:55:33;;;;;;;6.90;3.67;;;;;;;24.00;48.07;101692.44;5092543;28;20086;-61
2022/07/19 04:57:58;;;;;;;5.38;3.60;;;;;;;24.01;48.44;101701.28;5092212;28;20024;-61
2022/07/19 05:00:24;;;;;;;6.32;3.90;;;;;;;24.00;48.45;101692.44;5091693;28;20028;-61
2022/07/19 05:02:50;;;;;;;6.03;4.07;;;;;;;23.99;48.31;101695.22;5092480;28;20039;-61
2022/07/19 05:05:15;;;;;;;5.72;3.67;;;;;;;24.00;48.25;101680.94;5091969;28;20021;-61
2022/07/19 05:07:44;;;;;;;5.65;3.55;;;;;;;24.00;48.25;101684.44;5091792;28;20028;-61
2022/07/19 05:10:09;;;;;;;5.85;3.42;;;;;;;24.01;48.42;101693.28;5091851;28;20028;-61
2022/07/19 05:12:35;;;;;;;5.18;3.70;;;;;;;24.00;48.17;101678.28;5092249;28;20044;-61
2022/07/19 05:15:00;;;;;;;5.25;3.58;;;;;;;23.97;48.12;101675.91;5091427;28;20020;-61
2022/07/19 05:17:26;;;;;;;6.60;3.78;;;;;;;24.00;48.42;101676.44;5092336;28;20024;-61
2022/07/19 05:19:54;;;;;;;5.55;3.90;;;;;;;24.02;48.17;101681.63;5092297;28;20074;-61
2022/07/19 05:22:19;;;;;;;5.72;3.35;;;;;;;24.03;48.44;101680.66;5091384;28;20032;-61
2022/07/19 05:24:45;;;;;;;6.35;3.88;;;;;;;24.03;48.03;101681.50;5092254;28;20036;-61
2022/07/19 05:27:10;;;;;;;5.63;3.85;;;;;;;24.05;48.28;101682.22;5091572;28;20025;-61
2022/07/19 05:29:38;;;;;;;6.32;3.63;;;;;;;24.06;48.23;101680.38;5092194;28;20467;-61
2022/07/19 05:32:03;;;;;;;4.82;3.70;;;;;;;24.07;47.82;101684.72;5091947;28;20054;-61
2022/07/19 05:34:29;;;;;;;13.90;7.30;;;;;;;24.00;47.17;101699.59;5091510;28;20125;-62
2022/07/19 05:36:57;;;;;;;11.07;7.43;;;;;;;23.86;48.00;101698.19;5091856;28;20562;-61
2022/07/19 05:39:22;;;;;;;10.40;6.82;;;;;;;23.71;48.29;101701.25;5092134;28;20093;-61
2022/07/19 05:41:48;;;;;;;9.83;6.67;;;;;;;23.58;48.58;101707.88;5091432;28;20047;-61
2022/07/19 05:44:16;;;;;;;11.75;6.72;;;;;;;23.47;48.83;101714.16;5091715;28;20287;-60
2022/07/19 05:46:44;;;;;;;13.07;8.45;;;;;;;23.38;48.87;101712.31;5092025;28;20486;-61
2022/07/19 05:49:14;;;;;;;10.88;8.00;;;;;;;23.32;49.19;101711.03;5091007;28;20028;-61
2022/07/19 05:51:40;;;;;;;11.20;7.68;;;;;;;23.27;48.77;101700.00;5091811;28;20027;-61
2022/07/19 05:54:08;;;;;;;8.75;7.28;;;;;;;23.24;48.71;101708.25;5091940;28;20016;-60
2022/07/19 05:56:37;;;;;;;12.50;9.65;;;;;;;23.22;48.69;101703.06;5094156;28;20016;-60
2022/07/19 05:59:02;;;;;;;15.07;9.75;;;;;;;23.23;48.66;101706.59;5095534;28;20081;-60
2022/07/19 06:01:28;;;;;;;12.07;8.05;;;;;;;23.23;48.19;101709.25;5095616;28;20472;-60
2022/07/19 06:03:55;;;;;;;13.90;7.60;;;;;;;23.23;48.38;101701.25;5094737;28;20085;-60
2022/07/19 06:06:22;;;;;;;12.90;7.82;;;;;;;23.24;47.65;101702.94;5095452;28;20020;-61
2022/07/19 06:08:48;;;;;;;10.77;7.18;;;;;;;23.26;47.36;101704.47;5095565;28;20020;-61
2022/07/19 06:11:15;;;;;;;14.27;6.70;;;;;;;23.28;46.95;101705.16;5094248;28;20605;-62
2022/07/19 06:13:45;;;;;;;11.77;6.65;;;;;;;23.32;47.26;101703.06;5095562;28;20048;-65
2022/07/19 06:16:11;;;;;;;9.15;6.13;;;;;;;23.33;47.16;101704.75;5095004;28;20020;-62
2022/07/19 06:18:37;;;;;;;10.68;5.88;;;;;;;23.37;46.59;101706.19;5094367;28;20028;-62
2022/07/19 06:21:06;;;;;;;10.45;6.10;;;;;;;23.41;46.86;101707.56;5094755;28;20490;-61
2022/07/19 06:23:31;;;;;;;11.75;5.80;;;;;;;23.44;46.61;101701.97;5094602;28;20024;-62
2022/07/19 06:25:59;;;;;;;9.90;5.63;;;;;;;23.46;46.30;101707.97;5094804;28;20360;-61
2022/07/19 06:28:25;;;;;;;12.82;6.13;;;;;;;23.51;46.27;101699.59;5095058;28;20024;-62
2022/07/19 06:30:54;;;;;;;11.88;5.32;;;;;;;23.54;46.41;101708.16;5094162;28;20020;-62
2022/07/19 06:33:19;;;;;;;9.00;5.30;;;;;;;23.58;46.63;101703.38;5094824;28;20085;-62
2022/07/19 06:35:45;;;;;;;10.18;5.65;;;;;;;23.64;46.78;101704.63;5094719;28;20464;-63
2022/07/19 06:38:10;;;;;;;8.50;5.38;;;;;;;23.68;46.20;101706.88;5093852;28;20035;-63
2022/07/19 06:40:35;;;;;;;8.05;5.00;;;;;;;23.72;46.39;101704.78;5094972;28;20062;-63
2022/07/19 06:43:01;;;;;;;12.40;4.68;;;;;;;23.77;46.48;101696.38;5094515;28;20024;-63
2022/07/19 06:45:26;;;;;;;8.17;4.77;;;;;;;23.82;46.29;101704.78;5093930;28;20028;-63
2022/07/19 06:47:51;;;;;;;9.30;4.88;;;;;;;23.85;45.92;101701.84;5094614;28;20309;-63
2022/07/19 06:50:20;;;;;;;7.00;4.53;;;;;;;23.86;46.20;101695.53;5094060;28;20447;-63
2022/07/19 06:52:46;;;;;;;9.95;4.35;;;;;;;23.92;46.58;101699.47;5093914;28;20028;-63
2022/07/19 06:55:11;;;;;;;8.13;4.47;;;;;;;23.93;46.35;101695.81;5094159;28;20082;-62
2022/07/19 06:57:39;;;;;;;7.80;4.13;;;;;;;23.98;46.69;101697.06;5094666;28;20036;-62
2022/07/19 07:00:08;;;;;;;7.78;4.07;;;;;;;24.01;46.96;101704.75;5093524;28;20024;-62
2022/07/19 07:02:35;;;;;;;7.25;4.78;;;;;;;24.04;46.62;101693.00;5023584;28;20071;-63
2022/07/19 07:05:00;;;;;;;10.35;4.10;;;;;;;24.06;47.12;101697.19;5093645;28;20032;-62
2022/07/19 07:07:25;;;;;;;7.07;4.33;;;;;;;24.06;46.79;101699.00;5093335;28;20391;-62
2022/07/19 07:09:53;;;;;;;6.77;3.97;;;;;;;24.07;47.23;101700.69;5094272;28;20280;-62
2022/07/19 07:12:19;;;;;;;8.35;4.32;;;;;;;24.05;47.32;101703.50;5093802;28;20308;-62
2022/07/19 07:14:44;;;;;;;7.13;4.03;;;;;;;24.06;47.04;101699.00;5093180;28;20490;-62
2022/07/19 07:17:09;;;;;;;8.52;4.00;;;;;;;24.08;47.29;101691.72;5094073;28;20165;-65
2022/07/19 07:19:35;;;;;;;8.47;4.33;;;;;;;24.07;47.16;101685.56;5094015;28;20042;-63
2022/07/19 07:22:01;;;;;;;6.95;3.90;;;;;;;24.09;47.41;101683.59;5093494;28;20027;-63
2022/07/19 07:24:28;;;;;;;7.03;4.15;;;;;;;24.14;47.56;101691.13;5094136;28;20052;-62
2022/07/19 07:26:53;;;;;;;8.00;3.70;;;;;;;24.17;47.10;101688.19;5093318;28;20560;-63
2022/07/19 07:29:19;;;;;;;7.72;4.40;;;;;;;24.23;46.86;101686.78;5093608;28;20028;-62
2022/07/19 07:31:44;;;;;;;7.72;4.07;;;;;;;24.30;46.79;101687.03;5093857;28;20020;-62
2022/07/19 07:34:10;;;;;;;8.52;3.67;;;;;;;24.35;46.64;101685.59;5093008;28;20445;-63
2022/07/19 07:36:35;;;;;;;9.02;3.78;;;;;;;24.39;46.91;101683.50;5093806;28;20051;-64
2022/07/19 07:39:01;;;;;;;6.03;3.60;;;;;;;24.42;46.39;101686.72;5093727;28;20032;-65
2022/07/19 07:41:26;;;;;;;6.78;3.50;;;;;;;24.46;46.38;101684.59;5093141;28;20028;-65
2022/07/19 07:43:51;;;;;;;6.32;3.50;;;;;;;24.51;46.73;101681.47;5093972;28;20031;-66
2022/07/19 07:46:16;;;;;;;7.07;3.63;;;;;;;24.55;46.32;101680.22;5093474;28;20020;-66
2022/07/19 07:48:42;;;;;;;6.23;3.60;;;;;;;24.58;46.04;101682.63;5093195;28;20384;-66
2022/07/19 07:51:10;;;;;;;5.90;3.50;;;;;;;24.62;46.23;101668.00;5093518;28;20314;-66
2022/07/19 07:53:35;;;;;;;5.60;3.50;;;;;;;24.70;45.80;101675.25;5093392;28;20016;-64
2022/07/19 07:56:01;;;;;;;6.07;3.40;;;;;;;24.74;45.72;101671.31;5092537;28;20020;-64
2022/07/19 07:58:26;;;;;;;6.72;3.60;;;;;;;24.77;45.75;101674.53;5093618;28;20292;-64
2022/07/19 08:00:51;;;;;;;5.53;3.47;;;;;;;24.81;45.56;101667.06;5093443;28;20061;-63
2022/07/19 08:03:17;;;;;;;8.77;3.65;;;;;;;24.82;45.68;101668.75;5092350;28;20343;-64
2022/07/19 08:05:47;;;;;;;7.68;3.92;;;;;;;24.81;46.02;101670.53;5093641;28;20024;-64
2022/07/19 08:08:13;;;;;;;6.75;3.85;;;;;;;24.81;45.93;101665.22;5093108;28;20024;-65
2022/07/19 08:10:38;;;;;;;7.60;3.53;;;;;;;24.82;45.74;101663.41;5093035;28;20024;-65
2022/07/19 08:13:07;;;;;;;8.20;3.40;;;;;;;24.82;45.78;101660.75;5092985;28;20104;-65
2022/07/19 08:15:33;;;;;;;6.15;3.30;;;;;;;24.83;45.97;101662.41;5093063;28;20288;-63
2022/07/19 08:17:58;;;;;;;5.32;3.15;;;;;;;24.85;46.11;101665.78;5091994;28;20042;-62
2022/07/19 08:20:26;;;;;;;5.93;3.17;;;;;;;24.87;45.65;101655.78;5092886;28;20035;-63
2022/07/19 08:22:51;;;;;;;6.53;3.45;;;;;;;24.90;45.55;101660.81;5094132;28;20647;-62
2022/07/19 08:25:17;;;;;;;6.80;3.53;;;;;;;24.92;45.71;101663.34;5092756;28;20472;-62
2022/07/19 08:27:43;;;;;;;5.82;3.22;;;;;;;24.93;45.54;101655.19;5093285;28;20272;-63
2022/07/19 08:30:09;;;;;;;5.78;3.17;;;;;;;24.93;45.80;101654.38;5092173;28;20169;-63
2022/07/19 08:32:35;;;;;;;6.00;3.05;;;;;;;24.95;45.40;101657.72;5093418;28;20016;-63
2022/07/19 08:35:00;;;;;;;4.38;2.95;;;;;;;24.94;45.73;101651.56;5092890;28;20027;-62
2022/07/19 08:37:26;;;;;;;6.93;3.23;;;;;;;24.96;45.45;101651.41;5092315;28;20425;-65
2022/07/19 08:39:51;;;;;;;5.75;3.40;;;;;;;24.97;45.24;101650.41;5093068;28;20279;-62
2022/07/19 08:42:20;;;;;;;5.23;3.13;;;;;;;24.98;45.49;101649.41;5092525;28;20097;-62
2022/07/19 08:44:52;;;;;;;5.70;3.03;;;;;;;24.98;45.34;101650.25;5092080;28;20326;-62
2022/07/19 08:47:18;;;;;;;5.57;2.95;;;;;;;24.99;45.46;101643.94;5092701;28;20024;-62
2022/07/19 08:49:44;;;;;;;6.13;3.38;;;;;;;25.03;45.52;101649.78;5092871;28;20035;-64
2022/07/19 08:52:11;;;;;;;4.63;3.00;;;;;;;25.05;45.24;101644.31;5091703;28;20375;-61
2022/07/19 08:54:37;;;;;;;5.55;3.22;;;;;;;25.04;45.47;101646.16;5092817;28;20021;-59
2022/07/19 08:59:46;;;;;;;6.72;3.15;;;;;;;25.04;45.91;101647.97;5092332;28;20391;-59
2022/07/19 09:02:11;;;;;;;7.60;3.17;;;;;;;25.03;45.82;101638.31;5092459;28;20032;-61
2022/07/19 09:04:36;;;;;;;5.30;2.90;;;;;;;25.02;45.76;101641.94;5092774;28;20070;-58
2022/07/19 09:07:02;;;;;;;5.57;3.25;;;;;;;24.99;45.63;101638.59;5060749;28;20384;-59
2022/07/19 09:09:30;;;;;;;5.50;3.15;;;;;;;24.98;46.00;101638.75;5092358;28;20123;-59
2022/07/19 09:11:57;;;;;;;5.07;3.05;;;;;;;24.97;45.49;101632.56;5091972;28;20059;-60
2022/07/19 09:14:26;;;;;;;6.45;2.90;;;;;;;24.98;46.04;101634.25;5091569;28;20452;-60
2022/07/19 09:17:03;;;;;;;4.78;2.58;;;;;;;24.97;45.70;101629.91;5092629;28;20024;-60
2022/07/19 09:19:34;;;;;;;4.13;2.72;;;;;;;24.96;45.97;101635.41;5092137;28;20024;-60
2022/07/19 09:22:07;;;;;;;4.80;2.90;;;;;;;24.94;46.18;101632.91;5092355;28;20028;-60
2022/07/19 09:24:36;;;;;;;5.55;3.15;;;;;;;24.92;46.38;101632.19;5092541;28;20032;-60
2022/07/19 09:27:08;;;;;;;5.28;2.92;;;;;;;24.91;45.93;101630.53;5091497;28;20123;-61
2022/07/19 09:29:36;;;;;;;5.57;2.78;;;;;;;24.90;46.32;101622.69;5092310;28;20457;-61
2022/07/19 09:32:11;;;;;;;7.32;2.90;;;;;;;24.92;45.90;101631.34;5095985;28;20024;-61
2022/07/19 09:34:42;;;;;;;7.55;2.85;;;;;;;24.91;45.82;101627.84;5095585;28;20532;-61
2022/07/19 09:37:08;;;;;;;6.15;3.20;;;;;;;24.91;46.27;101635.00;5095845;28;20492;-60
2022/07/19 09:39:34;;;;;;;4.72;2.78;;;;;;;24.90;46.12;101626.16;5096055;28;20050;-61
2022/07/19 09:42:02;;;;;;;5.30;2.90;;;;;;;24.89;46.47;101626.31;5095059;28;20024;-61
2022/07/19 09:44:28;;;;;;;6.22;2.78;;;;;;;24.86;46.59;101618.63;5095909;28;20225;-62
2022/07/19 09:46:53;;;;;;;5.25;3.08;;;;;;;24.86;46.53;101618.63;5096090;28;20140;-61
2022/07/19 09:49:18;;;;;;;4.35;2.50;;;;;;;24.87;46.60;101620.31;5094662;28;20035;-62
2022/07/19 09:51:47;;;;;;;5.20;2.97;;;;;;;24.87;46.66;101614.97;5096034;28;20024;-61
2022/07/19 09:54:14;;;;;;;4.97;2.72;;;;;;;24.84;46.20;101605.44;5095700;28;20016;-62
2022/07/19 09:56:43;;;;;;;6.80;2.65;;;;;;;24.84;46.66;101615.28;5095022;28;20034;-62
2022/07/19 09:59:08;;;;;;;5.50;3.15;;;;;;;24.83;46.61;101617.09;5095249;28;20103;-62
2022/07/19 10:01:35;;;;;;;6.93;2.90;;;;;;;24.82;46.44;101610.09;5094937;28;20111;-62
2022/07/19 10:04:14;;;;;;;5.13;2.88;;;;;;;24.83;46.50;101613.59;5095309;28;20099;-62
2022/07/19 10:06:40;;;;;;;5.65;3.08;;;;;;;24.81;46.37;101600.41;5095762;28;20028;-62
2022/07/19 10:09:08;;;;;;;4.90;3.00;;;;;;;24.81;46.47;101609.22;5094397;28;20474;-62
2022/07/19 10:11:34;;;;;;;4.43;2.70;;;;;;;24.80;46.94;101606.72;5095410;28;20123;-62
2022/07/19 10:14:00;;;;;;;4.50;2.50;;;;;;;24.79;46.58;101615.72;5095241;28;20047;-62
2022/07/19 10:16:34;;;;;;;5.15;2.63;;;;;;;24.78;47.08;101604.25;5094681;28;20379;-62
2022/07/19 10:19:15;;;;;;;5.70;2.50;;;;;;;24.77;46.83;101602.53;5095348;28;20028;-64
2022/07/19 10:21:45;;;;;;;6.82;2.80;;;;;;;24.80;46.86;101599.59;5095597;28;20024;-63
2022/07/19 10:24:10;;;;;;;5.78;2.72;;;;;;;24.85;47.22;101600.94;5094474;28;20016;-67
2022/07/19 10:26:40;;;;;;;5.32;2.67;;;;;;;24.90;46.94;101602.19;5095188;28;20111;-66
2022/07/19 10:29:10;;;;;;;5.13;2.75;;;;;;;24.98;47.15;101598.75;5094919;28;20032;-67
2022/07/19 10:31:35;;;;;;;5.20;2.78;;;;;;;25.06;46.54;101590.81;5094440;28;20390;-64
2022/07/19 10:34:04;;;;;;;4.70;2.80;;;;;;;25.13;46.54;101588.38;5094943;28;20016;-65
2022/07/19 10:36:32;;;;;;;5.60;2.70;;;;;;;25.17;46.25;101587.94;5095284;28;20016;-66
2022/07/19 10:39:20;;;;;;;5.78;2.60;;;;;;;25.23;46.20;101583.81;5094494;28;20034;-66
2022/07/19 10:42:13;;;;;;;7.80;2.85;;;;;;;25.29;46.37;101580.56;5094140;28;20028;-67
2022/07/19 10:45:00;;;;;;;5.85;2.70;;;;;;;25.37;46.30;101581.59;5094070;28;20016;-65
2022/07/19 10:47:37;;;;;;;5.25;2.60;;;;;;;25.40;45.93;101574.13;5094811;28;20027;-65
2022/07/19 10:50:03;;;;;;;4.78;2.67;;;;;;;25.43;46.16;101564.97;5094725;28;20039;-66
2022/07/19 10:52:28;;;;;;;4.05;2.42;;;;;;;25.46;45.90;101565.50;5094191;28;20020;-66
2022/07/19 10:55:15;;;;;;;5.03;2.70;;;;;;;25.47;45.71;101569.84;5094825;28;20085;-61
2022/07/19 10:57:42;;;;;;;4.65;2.35;;;;;;;25.49;46.05;101569.69;5094064;28;20028;-62
2022/07/19 11:00:20;;;;;;;6.00;3.30;;;;;;;25.50;45.74;101560.69;5094248;28;20063;-64
2022/07/19 11:02:47;;;;;;;5.97;2.67;;;;;;;25.52;45.90;101561.38;5094818;28;20109;-64
2022/07/19 11:05:32;;;;;;;4.32;2.70;;;;;;;25.52;45.84;101561.38;5093388;28;20513;-63
2022/07/19 11:08:00;;;;;;;6.95;2.50;;;;;;;25.51;46.47;101552.50;5093812;28;20131;-61
2022/07/19 11:10:28;;;;;;;4.40;2.38;;;;;;;25.50;46.08;101547.34;5094332;28;20051;-61
2022/07/19 11:12:55;;;;;;;4.90;2.60;;;;;;;25.48;46.67;101550.16;5093420;28;20048;-61
2022/07/19 11:15:20;;;;;;;4.85;2.58;;;;;;;25.46;46.56;101548.66;5094457;28;20051;-61
2022/07/19 11:17:54;;;;;;;6.18;2.70;;;;;;;25.43;46.61;101539.13;5094203;28;20051;-61
2022/07/19 11:20:22;;;;;;;;;;;;;;;25.41;45.92;101537.63;5093851;28;20077;-61
2022/07/19 11:22:48;;;;;;;4.20;2.40;;;;;;;25.41;46.08;101533.13;4957277;28;20335;-62
2022/07/19 11:25:15;;;;;;;4.55;2.40;;;;;;;25.38;46.24;101528.09;5075650;28;20019;-61
2022/07/19 11:27:45;;;;;;;4.32;2.50;;;;;;;25.35;46.24;101523.91;5113843;28;20035;-62
2022/07/19 11:30:13;;;;;;;4.65;2.38;;;;;;;25.34;46.32;101527.56;5113944;28;20051;-62